Time;durP1;ratioP1;P1;durP2;ratioP2;P2;SDS_P1;SDS_P2;PMS_P1;PMS_P2;Temp;Humidity;BMP_temperature;BMP_pressure;BME280_temperature;BME280_humidity;BME280_pressure;Samples;Min_cycle;Max_cycle;Signal;HPM_P1;HPM_P2
2022/05/16 00:01:07;;;;;;;15.75;8.80;;;;;;;17.87;nan;95621.13;5031868;28;20051;-86
2022/05/16 00:03:33;;;;;;;16.88;8.90;;;;;;;17.74;nan;95604.03;5058757;28;20044;-86
2022/05/16 00:05:58;;;;;;;15.93;9.02;;;;;;;17.72;nan;95598.19;5055941;28;20044;-86
2022/05/16 00:08:24;;;;;;;12.20;8.68;;;;;;;17.20;nan;95529.25;5056793;28;20032;-86
2022/05/16 00:10:49;;;;;;;13.02;9.18;;;;;;;16.44;nan;95407.88;5056394;28;20541;-86
2022/05/16 00:13:15;;;;;;;13.55;9.25;;;;;;;16.19;nan;95393.19;5056471;28;20043;-86
2022/05/16 00:15:40;;;;;;;10.48;9.02;;;;;;;16.88;nan;95531.09;5056180;28;20052;-86
2022/05/16 00:18:06;;;;;;;18.92;8.73;;;;;;;17.40;nan;95611.03;5056316;28;20045;-86
2022/05/16 00:20:32;;;;;;;11.75;9.30;;;;;;;15.48;nan;95313.78;5058773;28;20051;-86
2022/05/16 00:22:58;;;;;;;18.02;9.30;;;;;;;17.26;nan;95606.53;5055770;28;20135;-86
2022/05/16 00:25:24;;;;;;;13.23;9.15;;;;;;;16.26;nan;95476.53;5036385;28;20048;-86
2022/05/16 00:27:50;;;;;;;14.45;9.02;;;;;;;16.39;nan;95518.53;5036087;28;20576;-86
2022/05/16 00:30:17;;;;;;;16.27;9.57;;;;;;;16.29;nan;95499.22;5035966;28;20608;-86
2022/05/16 00:32:44;;;;;;;14.30;8.02;;;;;;;15.77;nan;95437.22;5044158;28;20048;-86
2022/05/16 00:35:12;;;;;;;14.48;9.23;;;;;;;16.09;nan;95511.97;5048591;28;20039;-86
2022/05/16 00:37:38;;;;;;;16.08;9.90;;;;;;;15.33;nan;95368.34;5047549;28;20108;-86
2022/05/16 00:40:05;;;;;;;11.07;9.30;;;;;;;16.30;nan;95549.00;5058041;28;20131;-86
2022/05/16 00:42:31;;;;;;;20.05;9.90;;;;;;;14.88;nan;95349.41;5056444;28;20052;-86
2022/05/16 00:44:57;;;;;;;15.88;9.40;;;;;;;16.06;nan;95538.50;5043532;28;20049;-86
2022/05/16 00:47:22;;;;;;;12.52;9.15;;;;;;;16.26;nan;95554.13;5050834;28;20043;-86
2022/05/16 00:49:50;;;;;;;14.20;9.20;;;;;;;16.30;nan;95536.41;5040669;28;20231;-86
2022/05/16 00:52:18;;;;;;;11.80;8.98;;;;;;;16.85;nan;95609.41;5035679;28;20143;-86
2022/05/16 00:54:49;;;;;;;17.88;10.07;;;;;;;16.45;nan;95556.69;5035769;28;20052;-86
2022/05/16 00:57:18;;;;;;;;;;;;;;;16.75;nan;95614.19;5056444;28;20048;-86
2022/05/16 00:59:52;;;;;;;14.82;9.60;;;;;;;16.22;nan;95523.72;5037195;28;19920;-86
2022/05/16 01:05:06;;;;;;;17.27;10.32;;;;;;;16.30;nan;95581.91;5057083;28;20059;-86
2022/05/16 01:07:34;;;;;;;19.08;10.13;;;;;;;15.72;nan;95512.97;5046790;28;20086;-86
2022/05/16 01:10:01;;;;;;;16.70;10.10;;;;;;;15.93;nan;95537.44;5048488;28;20047;-86
2022/05/16 01:12:39;;;;;;;16.15;9.57;;;;;;;16.06;nan;95562.59;5055711;28;20052;-86
2022/05/16 01:15:08;;;;;;;16.25;8.85;;;;;;;15.63;nan;95517.44;5056006;28;20524;-85
2022/05/16 01:17:34;;;;;;;16.92;10.25;;;;;;;16.16;nan;95581.91;5038307;28;20179;-86
2022/05/16 01:19:59;;;;;;;14.77;9.23;;;;;;;16.28;nan;95591.31;5056353;28;20574;-86
2022/05/16 01:22:38;;;;;;;16.48;9.50;;;;;;;16.33;nan;95585.84;5055247;28;20037;-86
2022/05/16 01:25:10;;;;;;;14.45;9.27;;;;;;;15.24;nan;95400.28;5053859;28;20048;-86
2022/05/16 01:27:49;;;;;;;14.63;10.55;;;;;;;15.88;nan;95504.63;5037691;28;20041;-86
2022/05/16 01:30:22;;;;;;;15.90;9.23;;;;;;;15.36;nan;95496.78;5045535;28;20048;-86
2022/05/16 01:32:48;;;;;;;14.70;9.45;;;;;;;14.05;nan;95296.16;5055525;28;20082;-86
2022/05/16 01:35:18;;;;;;;15.20;9.90;;;;;;;16.01;nan;95578.75;5055628;28;20151;-86
2022/05/16 01:40:27;;;;;;;20.08;10.68;;;;;;;15.87;nan;95543.19;5038943;28;20052;-86
2022/05/16 01:42:53;;;;;;;12.27;9.50;;;;;;;16.39;nan;95608.75;5056453;28;20052;-86
2022/05/16 01:45:18;;;;;;;15.73;9.70;;;;;;;15.87;nan;95521.81;5055364;28;20649;-85
2022/05/16 01:47:44;;;;;;;18.40;10.45;;;;;;;15.79;nan;95517.94;5055488;28;20475;-86
2022/05/16 01:50:09;;;;;;;24.08;10.73;;;;;;;14.03;nan;95239.69;5056678;28;20466;-86
2022/05/16 01:52:35;;;;;;;15.77;10.88;;;;;;;16.00;nan;95535.16;5054774;28;20338;-86
2022/05/16 01:55:00;;;;;;;19.02;9.60;;;;;;;14.49;nan;95312.53;5055360;28;20196;-86
2022/05/16 01:57:26;;;;;;;20.60;10.52;;;;;;;14.44;nan;95287.78;5055778;28;20815;-86
2022/05/16 01:59:51;;;;;;;16.63;10.23;;;;;;;14.14;nan;95263.22;5049054;28;20569;-85
2022/05/16 02:02:17;;;;;;;14.48;10.02;;;;;;;15.41;nan;95495.88;5025243;28;20758;-84
2022/05/16 02:04:42;;;;;;;15.65;9.85;;;;;;;15.64;nan;95553.75;5028815;28;20068;-84
2022/05/16 02:07:08;;;;;;;16.15;11.35;;;;;;;15.83;nan;95559.03;5036398;28;20040;-84
2022/05/16 02:09:33;;;;;;;25.58;11.63;;;;;;;15.31;nan;95467.50;5036881;28;20144;-85
2022/05/16 02:11:59;;;;;;;17.48;11.35;;;;;;;15.50;nan;95488.78;5034943;28;20562;-84
2022/05/16 02:14:25;;;;;;;22.75;11.25;;;;;;;15.81;nan;95535.25;5035081;28;20153;-85
2022/05/16 02:16:50;;;;;;;16.92;10.02;;;;;;;15.52;nan;95510.66;5022688;28;20413;-85
2022/05/16 02:19:16;;;;;;;17.25;10.48;;;;;;;16.25;nan;95610.66;5037974;28;20072;-85
2022/05/16 02:24:42;;;;;;;12.88;9.73;;;;;;;15.23;nan;95516.28;5059458;28;20110;-84
2022/05/16 02:27:11;;;;;;;;;;;;;;;15.90;nan;95609.44;5051722;28;20495;-85
2022/05/16 02:29:38;;;;;;;14.07;10.10;;;;;;;15.46;nan;95535.91;5037737;28;20363;-85
2022/05/16 02:32:06;;;;;;;17.95;10.98;;;;;;;15.11;nan;95523.16;5035256;28;20624;-85
2022/05/16 02:34:32;;;;;;;18.27;10.93;;;;;;;15.29;nan;95546.34;5035067;28;20041;-84
2022/05/16 02:36:58;;;;;;;18.60;10.88;;;;;;;15.70;nan;95606.06;5036548;28;20045;-84
2022/05/16 02:39:24;;;;;;;16.60;10.85;;;;;;;15.16;nan;95523.88;5034836;28;20076;-85
2022/05/16 02:41:49;;;;;;;14.73;10.95;;;;;;;14.72;nan;95488.84;5034753;28;20092;-84
2022/05/16 02:44:15;;;;;;;22.65;11.55;;;;;;;13.97;nan;95369.63;5035989;28;20716;-85
2022/05/16 02:46:42;;;;;;;19.27;11.27;;;;;;;14.61;nan;95482.84;5034922;28;20048;-85
2022/05/16 02:49:08;;;;;;;20.40;10.85;;;;;;;15.32;nan;95605.34;5017507;28;20464;-85
2022/05/16 02:51:34;;;;;;;16.13;10.48;;;;;;;15.48;nan;95611.25;5033515;28;20069;-85
2022/05/16 02:54:00;;;;;;;17.38;11.20;;;;;;;14.36;nan;95427.97;5018352;28;20128;-84
2022/05/16 02:56:26;;;;;;;15.57;10.98;;;;;;;15.31;nan;95561.00;5029976;28;20037;-85
2022/05/16 02:58:51;;;;;;;16.13;11.32;;;;;;;14.95;nan;95523.41;5014744;28;20116;-85
2022/05/16 03:01:17;;;;;;;18.58;10.98;;;;;;;13.23;nan;95304.56;5041272;28;20175;-85
2022/05/16 03:03:42;;;;;;;15.73;11.15;;;;;;;14.40;nan;95484.25;5056943;28;20043;-85
2022/05/16 03:06:10;;;;;;;16.38;10.63;;;;;;;13.65;nan;95356.25;5066183;28;20181;-85
2022/05/16 03:08:37;;;;;;;15.82;10.65;;;;;;;14.43;nan;95465.78;5068433;28;20279;-86
2022/05/16 03:11:04;;;;;;;20.30;11.23;;;;;;;15.31;nan;95625.16;5061763;28;20217;-85
2022/05/16 03:13:29;;;;;;;17.65;11.20;;;;;;;15.29;nan;95619.28;5070484;28;20040;-84
2022/05/16 03:15:55;;;;;;;16.63;10.40;;;;;;;14.75;nan;95531.75;5044408;28;20109;-84
2022/05/16 03:18:23;;;;;;;14.00;10.73;;;;;;;14.83;nan;95532.97;5057135;28;20495;-85
2022/05/16 03:20:50;;;;;;;15.82;10.50;;;;;;;14.96;nan;95530.34;5079187;28;20043;-84
2022/05/16 03:23:15;;;;;;;17.33;10.30;;;;;;;15.58;nan;95618.31;5070495;28;20033;-85
2022/05/16 03:25:41;;;;;;;17.73;10.40;;;;;;;15.50;nan;95621.63;5059358;28;20040;-84
2022/05/16 03:28:07;;;;;;;22.23;10.85;;;;;;;15.18;nan;95579.69;5054438;28;20237;-85
2022/05/16 03:30:32;;;;;;;23.10;11.32;;;;;;;14.67;nan;95495.81;5060474;28;20044;-84
2022/05/16 03:32:58;;;;;;;20.13;9.80;;;;;;;15.58;nan;95635.16;5070375;28;20043;-85
2022/05/16 03:35:25;;;;;;;18.70;10.10;;;;;;;15.04;nan;95560.91;5037378;28;20059;-85
2022/05/16 03:37:50;;;;;;;12.88;9.18;;;;;;;14.87;nan;95544.66;5036942;28;20550;-84
2022/05/16 03:43:00;;;;;;;12.57;8.10;;;;;;;14.99;nan;95558.34;5079951;28;20603;-84
2022/05/16 03:45:25;;;;;;;14.38;8.05;;;;;;;15.64;nan;95641.97;5079198;28;20491;-85
2022/05/16 03:47:51;;;;;;;16.15;9.05;;;;;;;14.95;nan;95552.00;5045433;28;20044;-84
2022/05/16 03:50:18;;;;;;;13.68;8.40;;;;;;;14.27;nan;95454.50;5041169;28;20465;-85
2022/05/16 03:52:44;;;;;;;14.30;7.68;;;;;;;14.83;nan;95535.63;5059376;28;20428;-84
2022/05/16 03:55:13;;;;;;;12.68;7.65;;;;;;;15.08;nan;95564.63;5041811;28;20049;-85
2022/05/16 03:57:40;;;;;;;17.38;8.80;;;;;;;15.32;nan;95604.56;5058459;28;20040;-85
2022/05/16 04:00:12;;;;;;;14.38;8.07;;;;;;;15.20;nan;95559.59;5062692;28;20046;-85
2022/05/16 04:02:38;;;;;;;;;;;;;;;15.76;nan;95663.72;5066223;28;20491;-85
2022/05/16 04:05:05;;;;;;;21.60;8.63;;;;;;;15.68;nan;95629.63;5060310;28;20315;-84
2022/05/16 04:07:30;;;;;;;17.23;7.53;;;;;;;15.61;nan;95625.75;5079756;28;20454;-84
2022/05/16 04:09:56;;;;;;;13.57;8.63;;;;;;;15.47;nan;95595.50;5052309;28;20146;-85
2022/05/16 04:12:21;;;;;;;17.50;8.90;;;;;;;15.79;nan;95631.03;5067017;28;20206;-84
2022/05/16 04:14:47;;;;;;;15.07;8.75;;;;;;;16.11;nan;95672.97;5071133;28;20101;-84
2022/05/16 04:17:12;;;;;;;15.40;9.27;;;;;;;15.41;nan;95562.69;5075616;28;20125;-84
2022/05/16 04:19:38;;;;;;;16.33;8.38;;;;;;;13.10;nan;95209.41;5060138;28;20465;-84
2022/05/16 04:22:03;;;;;;;14.07;8.70;;;;;;;15.38;nan;95556.09;5059813;28;20047;-85
2022/05/16 04:24:29;;;;;;;17.00;9.27;;;;;;;15.63;nan;95605.66;5047756;28;20049;-85
2022/05/16 04:26:54;;;;;;;11.45;7.65;;;;;;;15.43;nan;95589.94;5072735;28;20124;-84
2022/05/16 04:29:19;;;;;;;13.45;8.38;;;;;;;15.61;nan;95588.31;5067139;28;20498;-84
2022/05/16 04:31:45;;;;;;;15.90;9.30;;;;;;;14.94;nan;95489.78;5044290;28;20393;-84
2022/05/16 04:34:11;;;;;;;14.63;8.27;;;;;;;16.30;nan;95669.44;5054020;28;20032;-84
2022/05/16 04:36:42;;;;;;;16.00;9.23;;;;;;;15.06;nan;95475.97;5062734;28;20048;-84
2022/05/16 04:39:08;;;;;;;15.60;9.48;;;;;;;15.40;nan;95534.41;5053496;28;20063;-85
2022/05/16 04:44:20;;;;;;;18.65;9.35;;;;;;;11.34;nan;94923.47;5060116;28;20055;-85
2022/05/16 04:46:45;;;;;;;18.70;9.07;;;;;;;15.90;nan;95638.88;5049474;28;20498;-86
2022/05/16 04:49:11;;;;;;;17.85;10.10;;;;;;;15.53;nan;95556.88;5067931;28;20092;-86
2022/05/16 04:51:37;;;;;;;15.35;9.85;;;;;;;15.59;nan;95550.38;5055273;28;20303;-85
2022/05/16 04:54:05;;;;;;;16.35;9.35;;;;;;;14.49;nan;95381.13;5059621;28;20044;-85
2022/05/16 04:56:32;;;;;;;21.27;8.90;;;;;;;13.28;nan;95157.22;5046917;28;20469;-86
2022/05/16 04:58:58;;;;;;;12.90;10.23;;;;;;;15.05;nan;95442.31;5047443;28;20137;-87
2022/05/16 05:01:24;;;;;;;18.83;10.68;;;;;;;14.98;nan;95423.22;5065041;28;20052;-85
2022/05/16 05:03:50;;;;;;;18.58;10.68;;;;;;;16.33;nan;95642.06;5069056;28;20366;-86
2022/05/16 05:06:28;;;;;;;16.13;9.15;;;;;;;15.25;nan;95483.91;5051332;28;20195;-85
2022/05/16 05:08:53;;;;;;;22.73;11.43;;;;;;;14.61;nan;95357.41;5042914;28;20031;-86
2022/05/16 05:14:46;;;;;;;32.53;14.20;;;;;;;16.68;nan;95662.78;5070186;28;20406;-86
2022/05/16 05:16:52;;;;;;;33.38;14.98;;;;;;;16.53;nan;95644.34;5053311;28;20310;-85
2022/05/16 05:19:18;;;;;;;33.10;14.98;;;;;;;16.50;nan;95607.44;5071557;28;20040;-86
2022/05/16 05:21:43;;;;;;;24.95;14.35;;;;;;;16.98;nan;95723.75;5065061;28;20251;-87
2022/05/16 05:24:09;;;;;;;29.98;14.05;;;;;;;16.05;nan;95630.56;5051786;28;20033;-87
2022/05/16 05:26:35;;;;;;;29.90;16.88;;;;;;;14.89;nan;95428.44;5059398;28;20047;-87
2022/05/16 05:29:01;;;;;;;39.42;13.93;;;;;;;12.49;nan;95060.44;5053104;28;20040;-87
2022/05/16 05:31:26;;;;;;;28.92;14.60;;;;;;;12.24;nan;95043.75;5049742;28;20058;-88
2022/05/16 05:33:55;;;;;;;36.15;16.20;;;;;;;12.46;nan;95040.53;5040524;28;20130;-86
2022/05/16 05:36:22;;;;;;;29.20;14.65;;;;;;;16.41;nan;95639.47;5044244;28;21270;-87
2022/05/16 05:38:51;;;;;;;27.58;15.48;;;;;;;16.85;nan;95721.09;5062607;28;20706;-88
2022/05/16 05:41:17;;;;;;;39.38;16.33;;;;;;;14.74;nan;95355.84;5041953;28;20131;-87
2022/05/16 05:43:43;;;;;;;27.70;15.77;;;;;;;14.85;nan;95387.41;5063499;28;20035;-86
2022/05/16 05:46:08;;;;;;;32.15;16.45;;;;;;;17.03;nan;95714.00;5041778;28;20036;-85
2022/05/16 05:48:34;;;;;;;33.30;16.52;;;;;;;16.37;nan;95594.88;5061347;28;20166;-86
2022/05/16 05:50:59;;;;;;;31.38;17.58;;;;;;;16.36;nan;95595.97;5038842;28;20561;-84
2022/05/16 05:53:25;;;;;;;40.28;16.90;;;;;;;16.27;nan;95549.56;5041509;28;20067;-86
2022/05/16 05:55:50;;;;;;;37.42;16.58;;;;;;;16.81;nan;95629.03;5044205;28;20044;-86
2022/05/16 05:58:16;;;;;;;28.02;18.20;;;;;;;16.77;nan;95639.56;5041066;28;20564;-86
2022/05/16 06:00:43;;;;;;;31.10;17.95;;;;;;;16.48;nan;95585.53;5060162;28;20059;-86
2022/05/16 06:03:08;;;;;;;34.38;17.77;;;;;;;17.39;nan;95717.53;5047531;28;20046;-86
2022/05/16 06:05:34;;;;;;;35.22;17.70;;;;;;;17.51;nan;95707.03;5043090;28;20422;-84
2022/05/16 06:08:01;;;;;;;38.17;17.85;;;;;;;17.35;nan;95703.91;5044068;28;20141;-82
2022/05/16 06:10:26;;;;;;;30.52;17.92;;;;;;;17.09;nan;95640.47;5060008;28;20615;-82
2022/05/16 06:12:53;;;;;;;32.00;18.17;;;;;;;17.05;nan;95623.41;5056352;28;20438;-82
2022/05/16 06:15:19;;;;;;;34.88;17.58;;;;;;;17.11;nan;95654.34;5032438;28;20039;-83
2022/05/16 06:17:47;;;;;;;35.63;17.92;;;;;;;16.64;nan;95560.03;5057013;28;20024;-83
2022/05/16 06:20:14;;;;;;;37.60;19.33;;;;;;;16.82;nan;95559.09;5075027;28;20036;-85
2022/05/16 06:22:40;;;;;;;30.70;16.50;;;;;;;15.37;nan;95324.66;5046026;28;20047;-85
2022/05/16 06:25:33;;;;;;;22.17;15.10;;;;;;;17.98;nan;95713.69;5044417;28;20039;-86
2022/05/16 06:28:16;;;;;;;29.88;14.55;;;;;;;17.80;nan;95695.09;5061682;28;20042;-85
2022/05/16 06:30:46;;;;;;;33.67;15.25;;;;;;;17.50;nan;95622.31;5033567;28;20591;-84
2022/05/16 06:33:13;;;;;;;29.58;16.23;;;;;;;16.27;nan;95421.91;5063177;28;20696;-85
2022/05/16 06:35:41;;;;;;;32.47;18.10;;;;;;;15.73;nan;95356.00;5062530;28;20139;-85
2022/05/16 06:38:09;;;;;;;27.75;17.92;;;;;;;17.38;nan;95605.22;5050028;28;20060;-85
2022/05/16 06:40:35;;;;;;;26.45;16.00;;;;;;;18.21;nan;95719.81;5050340;28;20040;-86
2022/05/16 06:43:01;;;;;;;33.65;16.02;;;;;;;15.97;nan;95402.00;5063327;28;20093;-86
2022/05/16 06:45:26;;;;;;;31.58;15.55;;;;;;;17.32;nan;95591.13;5051268;28;20813;-86
2022/05/16 06:47:52;;;;;;;27.80;17.55;;;;;;;17.74;nan;95641.59;5052065;28;20481;-85
2022/05/16 06:50:17;;;;;;;28.42;17.02;;;;;;;18.08;nan;95681.22;5046888;28;20047;-86
2022/05/16 06:52:43;;;;;;;42.47;19.17;;;;;;;17.76;nan;95637.81;5045281;28;20103;-86
2022/05/16 06:55:09;;;;;;;28.63;17.08;;;;;;;18.10;nan;95691.66;5062719;28;20035;-85
2022/05/16 06:57:36;;;;;;;26.88;16.33;;;;;;;17.99;nan;95652.78;5050117;28;20052;-87
2022/05/16 07:00:04;;;;;;;36.25;18.05;;;;;;;18.46;nan;95713.00;5063033;28;20065;-85
2022/05/16 07:02:30;;;;;;;32.85;17.80;;;;;;;17.39;nan;95562.03;5049765;28;20063;-85
2022/05/16 07:04:57;;;;;;;32.90;16.98;;;;;;;16.90;nan;95493.28;5067323;28;20489;-85
2022/05/16 07:07:22;;;;;;;41.40;18.98;;;;;;;18.00;nan;95673.16;5064658;28;20032;-85
2022/05/16 07:09:50;;;;;;;41.03;19.45;;;;;;;17.71;nan;95595.78;5070055;28;20768;-85
2022/05/16 07:12:16;;;;;;;38.15;17.45;;;;;;;18.31;nan;95665.06;5062626;28;20036;-86
2022/05/16 07:14:41;;;;;;;27.95;17.10;;;;;;;18.37;nan;95659.25;5066256;28;20044;-85
2022/05/16 07:17:08;;;;;;;39.05;18.42;;;;;;;18.43;nan;95651.84;5052758;28;20055;-85
2022/05/16 07:19:37;;;;;;;35.58;18.17;;;;;;;18.76;nan;95701.44;5064788;28;20044;-85
2022/05/16 07:22:14;;;;;;;31.33;16.70;;;;;;;16.07;nan;95292.09;5071942;28;20036;-85
2022/05/16 07:24:43;;;;;;;35.72;15.73;;;;;;;17.23;nan;95450.94;5051493;28;20044;-86
2022/05/16 07:29:54;;;;;;;30.13;16.65;;;;;;;15.47;nan;95167.88;5066118;28;20070;-85
2022/05/16 07:32:19;;;;;;;24.73;13.32;;;;;;;18.83;nan;95696.38;5069298;28;20043;-85
2022/05/16 07:34:47;;;;;;;26.55;13.82;;;;;;;18.91;nan;95705.56;5049831;28;20037;-85
2022/05/16 07:37:13;;;;;;;32.35;14.10;;;;;;;18.32;nan;95648.63;5070328;28;20048;-86
2022/05/16 07:39:38;;;;;;;33.92;13.95;;;;;;;15.01;nan;95091.47;5052314;28;20133;-87
2022/05/16 07:42:09;;;;;;;30.88;13.55;;;;;;;17.48;nan;95476.25;5049291;28;20143;-84
2022/05/16 07:44:36;;;;;;;28.65;14.00;;;;;;;18.69;nan;95660.00;5050146;28;20042;-85
2022/05/16 07:47:02;;;;;;;23.02;12.82;;;;;;;15.97;nan;95240.72;5038252;28;20133;-85
2022/05/16 07:49:28;;;;;;;30.17;13.50;;;;;;;16.90;nan;95386.13;5045718;28;20037;-86
2022/05/16 07:51:53;;;;;;;46.42;16.52;;;;;;;17.85;nan;95489.19;5040191;28;20044;-85
2022/05/16 07:54:19;;;;;;;30.17;11.93;;;;;;;17.85;nan;95470.41;5066179;28;20576;-84
2022/05/16 07:56:49;;;;;;;32.15;12.27;;;;;;;16.98;nan;95313.84;5064674;28;20055;-89
2022/05/16 07:59:17;;;;;;;20.67;11.50;;;;;;;17.39;nan;95429.88;5063176;28;20602;-87
2022/05/16 08:01:47;;;;;;;22.98;10.82;;;;;;;15.50;nan;95095.88;5025680;28;20053;-86
2022/05/16 08:04:14;;;;;;;30.55;10.63;;;;;;;15.32;nan;95089.66;5020778;28;20049;-87
2022/05/16 08:06:42;;;;;;;26.83;11.30;;;;;;;15.52;nan;95092.91;5019774;28;20347;-87
2022/05/16 08:12:02;;;;;;;20.85;10.43;;;;;;;17.45;nan;95383.03;5019991;28;20052;-88
2022/05/16 08:14:48;;;;;;;19.27;9.27;;;;;;;15.68;nan;95091.44;5017159;28;20168;-84
2022/05/16 08:17:13;;;;;;;13.30;7.32;;;;;;;15.80;nan;95091.66;5021596;28;20420;-85
2022/05/16 08:19:47;;;;;;;20.52;8.35;;;;;;;16.18;nan;95196.28;5018187;28;20128;-88
2022/05/16 08:22:18;;;;;;;22.08;7.40;;;;;;;18.56;nan;95483.59;5019111;28;20037;-86
2022/05/16 08:24:45;;;;;;;23.08;7.82;;;;;;;16.01;nan;95110.63;5028414;28;20795;-85
2022/05/16 08:27:11;;;;;;;17.45;6.80;;;;;;;18.34;nan;95450.44;5024920;28;20079;-85
2022/05/16 08:29:37;;;;;;;7.60;4.65;;;;;;;18.63;nan;95498.16;5020255;28;20044;-87
2022/05/16 08:32:07;;;;;;;12.80;4.72;;;;;;;18.07;nan;95370.22;5015804;28;20121;-85
2022/05/16 08:34:35;;;;;;;10.85;3.58;;;;;;;17.48;nan;95285.88;5019057;28;20232;-86
2022/05/16 08:40:04;;;;;;;7.88;3.20;;;;;;;17.78;nan;95306.44;5021554;28;20055;-85
2022/05/16 08:42:41;;;;;;;17.30;4.90;;;;;;;20.25;nan;95662.28;5023468;28;20067;-85
2022/05/16 08:45:34;;;;;;;12.93;3.85;;;;;;;18.84;nan;95442.69;5019821;28;20053;-86
2022/05/16 08:48:14;;;;;;;15.10;4.63;;;;;;;16.16;nan;94992.50;5027801;28;20131;-87
2022/05/16 08:50:51;;;;;;;8.75;4.28;;;;;;;16.43;nan;95082.41;5033803;28;20087;-86
2022/05/16 08:53:23;;;;;;;8.48;4.07;;;;;;;19.20;nan;95479.13;5013563;28;20118;-86
2022/05/16 08:55:55;;;;;;;15.68;4.57;;;;;;;18.74;nan;95381.22;5019482;28;20041;-86
2022/05/16 08:58:55;;;;;;;9.02;3.78;;;;;;;17.27;nan;95155.16;5023458;28;20037;-86
2022/05/16 09:01:26;;;;;;;19.48;4.03;;;;;;;17.78;nan;95217.13;5023827;28;20068;-87
2022/05/16 09:04:09;;;;;;;15.25;4.03;;;;;;;19.52;nan;95457.06;5038233;28;20113;-85
2022/05/16 09:10:21;;;;;;;10.93;3.88;;;;;;;19.18;nan;95422.19;5043583;28;20542;-86
2022/05/16 09:13:11;;;;;;;10.77;3.45;;;;;;;18.76;nan;95351.38;5025580;28;20047;-87
2022/05/16 09:15:58;;;;;;;9.68;3.50;;;;;;;20.78;nan;95650.97;5034196;28;20124;-87
2022/05/16 09:18:36;;;;;;;10.70;3.40;;;;;;;18.89;nan;95353.84;5023259;28;20505;-86
2022/05/16 09:21:26;;;;;;;5.68;3.30;;;;;;;16.86;nan;95021.66;5032119;28;20748;-88
2022/05/16 09:24:35;;;;;;;13.07;3.83;;;;;;;21.24;nan;95645.75;5049283;28;20049;-84
2022/05/16 09:27:10;;;;;;;7.85;3.15;;;;;;;21.26;nan;95638.91;5037691;28;20291;-85
2022/05/16 09:29:45;;;;;;;8.20;3.28;;;;;;;21.25;nan;95636.53;5041250;28;20692;-85
2022/05/16 09:32:33;;;;;;;8.15;3.08;;;;;;;20.98;nan;95592.00;5051645;28;20319;-85
2022/05/16 09:35:00;;;;;;;8.15;2.40;;;;;;;17.84;nan;95104.00;5030217;28;20181;-87
2022/05/16 09:37:25;;;;;;;16.80;2.80;;;;;;;17.76;nan;95104.03;5045813;28;20532;-84
2022/05/16 09:39:53;;;;;;;8.35;3.13;;;;;;;17.77;nan;95092.97;5048270;28;20235;-85
2022/05/16 09:42:27;;;;;;;7.13;2.20;;;;;;;21.56;nan;95666.59;5036103;28;20317;-88
2022/05/16 09:45:03;;;;;;;9.63;2.33;;;;;;;18.94;nan;95167.44;5033173;28;21709;-85
2022/05/16 09:47:33;;;;;;;4.85;2.67;;;;;;;22.74;nan;95628.91;5040046;28;20120;-84
2022/05/16 09:50:21;;;;;;;7.72;2.10;;;;;;;23.80;nan;95620.38;5040919;28;20041;-84
2022/05/16 09:53:07;;;;;;;6.07;2.42;;;;;;;21.60;nan;95126.97;5038157;28;20070;-86
2022/05/16 09:55:53;;;;;;;7.15;3.05;;;;;;;24.21;nan;95411.25;5054682;28;20933;-84
2022/05/16 09:58:44;;;;;;;16.23;2.38;;;;;;;25.69;nan;95460.66;5038392;28;20456;-84
2022/05/16 10:01:11;;;;;;;8.97;2.57;;;;;;;24.50;nan;95170.56;5033233;28;20973;-86
2022/05/16 10:04:07;;;;;;;7.57;2.03;;;;;;;26.42;nan;95242.72;5031676;28;20044;-86
2022/05/16 10:06:44;;;;;;;12.85;2.70;;;;;;;28.48;nan;95451.41;5039760;28;20075;-86
2022/05/16 10:09:41;;;;;;;9.98;2.95;;;;;;;28.26;nan;95425.97;5048003;28;20041;-85
2022/05/16 10:12:11;;;;;;;9.75;2.30;;;;;;;27.24;nan;95139.97;5045606;28;20726;-87
2022/05/16 10:14:46;;;;;;;10.60;2.60;;;;;;;28.66;nan;95364.19;5031110;28;20044;-85
2022/05/16 10:17:28;;;;;;;8.38;3.03;;;;;;;28.30;nan;95319.63;5033830;28;20115;-86
2022/05/16 10:19:59;;;;;;;11.27;2.58;;;;;;;29.29;nan;95455.69;5035111;28;20416;-85
2022/05/16 10:22:27;;;;;;;9.48;2.42;;;;;;;28.98;nan;95485.22;5057327;28;20032;-85
2022/05/16 10:24:55;;;;;;;7.00;2.53;;;;;;;28.25;nan;95404.53;5035446;28;20040;-87
2022/05/16 10:27:31;;;;;;;9.48;2.20;;;;;;;27.88;nan;95396.47;5043078;28;20574;-87
2022/05/16 10:30:00;;;;;;;5.47;2.05;;;;;;;27.46;nan;95345.16;5032273;28;20102;-88
2022/05/16 10:35:29;;;;;;;;;;;;;;;28.11;nan;95565.28;5049356;28;20226;-87
2022/05/16 10:37:57;;;;;;;4.85;2.20;;;;;;;26.58;nan;95193.53;5023505;28;20063;-85
2022/05/16 10:40:36;;;;;;;8.27;2.22;;;;;;;28.96;nan;95528.50;5034863;28;20635;-83
2022/05/16 10:43:26;;;;;;;3.72;1.85;;;;;;;29.01;nan;95554.66;5027977;28;20048;-85
2022/05/16 10:45:55;;;;;;;8.25;2.22;;;;;;;29.44;nan;95542.78;5024247;28;20036;-88
2022/05/16 10:48:29;;;;;;;9.43;2.03;;;;;;;27.12;nan;95243.75;5019738;28;20640;-87
2022/05/16 10:51:00;;;;;;;10.02;2.08;;;;;;;27.20;nan;95248.88;5043220;28;20400;-87
2022/05/16 10:53:37;;;;;;;7.97;1.60;;;;;;;28.78;nan;95465.63;5028738;28;20041;-85
2022/05/16 10:56:32;;;;;;;7.97;2.20;;;;;;;28.95;nan;95558.91;5030482;28;20070;-86
2022/05/16 10:59:19;;;;;;;8.32;2.30;;;;;;;28.89;nan;95544.84;5026671;28;20053;-86
2022/05/16 11:02:03;;;;;;;11.93;2.83;;;;;;;28.59;nan;95468.63;5045832;28;20072;-85
2022/05/16 11:04:38;;;;;;;5.88;2.00;;;;;;;28.66;nan;95555.22;5029352;28;20059;-85
2022/05/16 11:07:15;;;;;;;7.18;1.98;;;;;;;27.71;nan;95542.31;5029967;28;20044;-84
2022/05/16 11:09:53;;;;;;;7.32;1.85;;;;;;;27.77;nan;95532.63;5030140;28;20079;-86
2022/05/16 11:12:27;;;;;;;11.15;2.40;;;;;;;28.11;nan;95535.28;5028704;28;20151;-86
2022/05/16 11:15:31;;;;;;;7.75;2.47;;;;;;;28.08;nan;95522.41;5053704;28;20473;-87
2022/05/16 11:18:02;;;;;;;9.32;2.20;;;;;;;27.69;nan;95432.16;5016172;28;20045;-88
2022/05/16 11:20:38;;;;;;;7.03;2.08;;;;;;;28.09;nan;95423.09;5033283;28;20040;-87
2022/05/16 11:23:33;;;;;;;4.88;1.90;;;;;;;27.26;nan;95243.84;5031772;28;20040;-86
2022/05/16 11:26:12;;;;;;;10.18;2.00;;;;;;;28.39;nan;95509.03;5028534;28;20279;-85
2022/05/16 11:32:01;;;;;;;3.75;1.83;;;;;;;27.21;nan;95347.66;5047781;28;20356;-87
2022/05/16 11:34:51;;;;;;;5.25;2.08;;;;;;;27.16;nan;95328.94;5019959;28;20067;-86
2022/05/16 11:37:21;;;;;;;3.08;2.05;;;;;;;27.73;nan;95277.66;5050722;28;20052;-86
2022/05/16 11:40:33;;;;;;;7.35;2.63;;;;;;;29.36;nan;95459.25;5029780;28;20044;-87
2022/05/16 11:43:07;;;;;;;6.85;1.50;;;;;;;29.70;nan;95476.06;5027243;28;20534;-87
2022/05/16 11:45:37;;;;;;;5.95;2.08;;;;;;;29.86;nan;95503.03;5033360;28;20613;-85
2022/05/16 11:48:30;;;;;;;6.05;2.17;;;;;;;30.00;nan;95503.06;5048053;28;20036;-86
2022/05/16 11:51:14;;;;;;;5.57;2.20;;;;;;;30.06;nan;95492.53;5048285;28;20036;-86
2022/05/16 11:53:50;;;;;;;7.72;1.75;;;;;;;29.73;nan;95438.97;5045533;28;20045;-87
2022/05/16 12:03:07;;;;;;;6.90;1.67;;;;;;;29.92;nan;95480.38;5041496;28;20933;-87
2022/05/16 12:05:47;;;;;;;12.80;2.63;;;;;;;29.55;nan;95406.94;5025978;28;20105;-90
2022/05/16 12:08:25;;;;;;;4.00;1.83;;;;;;;29.94;nan;95466.34;5048221;28;21168;-87
2022/05/16 12:11:10;;;;;;;5.90;1.80;;;;;;;29.68;nan;95393.66;5034220;28;20057;-88
2022/05/16 12:13:58;;;;;;;6.60;1.77;;;;;;;29.92;nan;95394.81;5044935;28;20139;-88
2022/05/16 12:16:36;;;;;;;5.03;1.58;;;;;;;27.76;nan;95203.31;5026471;28;20462;-87
2022/05/16 12:19:23;;;;;;;5.70;2.03;;;;;;;29.35;nan;95444.00;5023546;28;20486;-87
2022/05/16 12:22:01;;;;;;;3.10;1.40;;;;;;;29.69;nan;95447.16;5049949;28;20356;-88
2022/05/16 12:24:30;;;;;;;5.75;1.80;;;;;;;28.43;nan;95249.94;5027841;28;20713;-88
2022/05/16 12:27:02;;;;;;;6.38;1.58;;;;;;;29.98;nan;95452.69;5034510;28;20037;-86
2022/05/16 12:29:52;;;;;;;8.27;1.60;;;;;;;29.95;nan;95456.19;5032595;28;20137;-87
2022/05/16 12:32:30;;;;;;;4.47;1.80;;;;;;;29.65;nan;95445.63;5030601;28;20111;-88
2022/05/16 12:35:09;;;;;;;6.65;1.45;;;;;;;29.68;nan;95433.88;5028586;28;20079;-89
2022/05/16 12:37:36;;;;;;;10.35;1.70;;;;;;;28.50;nan;95192.66;5032604;28;20052;-89
2022/05/16 12:40:19;;;;;;;3.63;1.50;;;;;;;29.37;nan;95323.44;5026610;28;20044;-88